createdAt,value
2018-03-11T00:00:35.480Z,973.82
2018-03-11T00:01:35.633Z,973.81
2018-03-11T00:02:35.895Z,973.79
2018-03-11T00:03:36.171Z,973.78
2018-03-11T00:04:36.423Z,973.79
2018-03-11T00:05:36.679Z,973.80
2018-03-11T00:06:36.889Z,973.81
2018-03-11T00:07:37.120Z,973.79
2018-03-11T00:08:37.371Z,973.80
2018-03-11T00:09:37.631Z,973.79
2018-03-11T00:10:37.888Z,973.82
2018-03-11T00:11:38.120Z,973.80
2018-03-11T00:12:38.351Z,973.80
2018-03-11T00:13:38.616Z,973.78
2018-03-11T00:14:38.917Z,973.82
2018-03-11T00:15:39.117Z,973.80
2018-03-11T00:16:39.399Z,973.77
2018-03-11T00:17:39.660Z,973.73
2018-03-11T00:18:39.908Z,973.74
2018-03-11T00:19:40.223Z,973.73
2018-03-11T00:20:40.422Z,973.71
2018-03-11T00:21:40.709Z,973.72
2018-03-11T00:22:40.888Z,973.71
2018-03-11T00:23:41.120Z,973.73
2018-03-11T00:24:41.481Z,973.75
2018-03-11T00:25:41.648Z,973.75
2018-03-11T00:26:41.963Z,973.77
2018-03-11T00:27:42.159Z,973.77
2018-03-11T00:28:42.444Z,973.76
2018-03-11T00:29:42.700Z,973.75
2018-03-11T00:30:42.867Z,973.74
2018-03-11T00:31:43.164Z,973.74
2018-03-11T00:32:43.522Z,973.74
2018-03-11T00:33:43.774Z,973.73
2018-03-11T00:34:44.165Z,973.67
2018-03-11T00:35:44.246Z,973.70
2018-03-11T00:36:44.524Z,973.74
2018-03-11T00:37:44.896Z,973.75
2018-03-11T00:38:45.034Z,973.75
2018-03-11T00:39:45.289Z,973.73
2018-03-11T00:40:45.642Z,973.75
2018-03-11T00:41:45.815Z,973.77
2018-03-11T00:42:46.161Z,973.78
2018-03-11T00:43:46.288Z,973.78
2018-03-11T00:44:49.662Z,973.77
2018-03-11T00:45:46.965Z,973.74
2018-03-11T00:46:47.455Z,973.76
2018-03-11T00:47:47.886Z,973.78
2018-03-11T00:48:47.840Z,973.71
2018-03-11T00:49:48.500Z,973.74
2018-03-11T00:50:48.632Z,973.75
2018-03-11T00:51:48.657Z,973.71
2018-03-11T00:52:49.015Z,973.73
2018-03-11T00:53:49.547Z,973.71
2018-03-11T00:54:49.562Z,973.66
2018-03-11T00:55:49.821Z,973.70
2018-03-11T00:56:52.393Z,973.70
2018-03-11T00:57:50.736Z,973.70
2018-03-11T00:58:50.933Z,973.67
2018-03-11T00:59:51.651Z,973.68
2018-03-11T01:00:51.284Z,973.69
2018-03-11T01:01:51.670Z,973.68
2018-03-11T01:02:51.922Z,973.64
2018-03-11T01:03:52.040Z,973.68
2018-03-11T01:04:52.281Z,973.63
2018-03-11T01:05:52.539Z,973.63
2018-03-11T01:06:52.811Z,973.66
2018-03-11T01:07:53.114Z,973.69
2018-03-11T01:08:53.262Z,973.68
2018-03-11T01:09:53.547Z,973.68
2018-03-11T01:10:53.916Z,973.68
2018-03-11T01:11:54.039Z,973.70
2018-03-11T01:12:54.322Z,973.69
2018-03-11T01:13:54.709Z,973.68
2018-03-11T01:14:54.907Z,973.67
2018-03-11T01:15:55.234Z,973.71
2018-03-11T01:16:55.390Z,973.70
2018-03-11T01:17:55.613Z,973.63
2018-03-11T01:18:55.890Z,973.60
2018-03-11T01:19:56.140Z,973.62
2018-03-11T01:20:56.374Z,973.57
2018-03-11T01:21:56.710Z,973.59
2018-03-11T01:22:56.904Z,973.59
2018-03-11T01:23:57.163Z,973.56
2018-03-11T01:24:57.425Z,973.54
2018-03-11T01:25:57.637Z,973.51
2018-03-11T01:26:57.939Z,973.46
2018-03-11T01:27:58.128Z,973.48
2018-03-11T01:28:58.409Z,973.52
2018-03-11T01:29:58.637Z,973.48
2018-03-11T01:30:58.868Z,973.49
2018-03-11T01:31:59.128Z,973.45
2018-03-11T01:32:59.375Z,973.44
2018-03-11T01:33:59.600Z,973.42
2018-03-11T01:34:59.875Z,973.39
2018-03-11T01:36:00.146Z,973.42
2018-03-11T01:37:00.348Z,973.40
2018-03-11T01:38:00.626Z,973.41
2018-03-11T01:39:00.869Z,973.40
2018-03-11T01:40:01.094Z,973.40
2018-03-11T01:41:01.393Z,973.40
2018-03-11T01:42:01.684Z,973.41
2018-03-11T01:43:01.990Z,973.40
2018-03-11T01:44:02.115Z,973.37
2018-03-11T01:45:02.438Z,973.36
2018-03-11T01:46:02.593Z,973.35
2018-03-11T01:47:02.865Z,973.38
2018-03-11T01:48:03.090Z,973.36
2018-03-11T01:49:03.360Z,973.35
2018-03-11T01:50:03.596Z,973.32
2018-03-11T01:51:03.826Z,973.34
2018-03-11T01:52:04.078Z,973.33
2018-03-11T01:53:04.292Z,973.35
2018-03-11T01:54:04.555Z,973.37
2018-03-11T01:55:04.812Z,973.36
2018-03-11T01:56:05.157Z,973.30
2018-03-11T01:57:05.375Z,973.29
2018-03-11T01:58:05.524Z,973.27
2018-03-11T01:59:05.767Z,973.27
2018-03-11T02:00:06.212Z,973.22
2018-03-11T02:01:06.410Z,973.16
2018-03-11T02:02:06.540Z,973.18
2018-03-11T02:03:06.848Z,973.17
2018-03-11T02:04:07.178Z,973.18
2018-03-11T02:05:07.300Z,973.18
2018-03-11T02:06:07.542Z,973.17
2018-03-11T02:07:07.797Z,973.14
2018-03-11T02:08:08.032Z,973.11
2018-03-11T02:09:08.307Z,973.09
2018-03-11T02:10:08.555Z,973.05
2018-03-11T02:11:08.808Z,973.04
2018-03-11T02:12:09.024Z,973.00
2018-03-11T02:13:09.278Z,972.96
2018-03-11T02:14:09.549Z,972.97
2018-03-11T02:15:09.761Z,972.92
2018-03-11T02:16:10.023Z,972.93
2018-03-11T02:17:10.279Z,972.91
2018-03-11T02:18:10.556Z,972.92
2018-03-11T02:19:10.772Z,972.91
2018-03-11T02:20:11.000Z,972.88
2018-03-11T02:21:11.269Z,972.89
2018-03-11T02:22:11.516Z,972.86
2018-03-11T02:23:11.735Z,972.83
2018-03-11T02:24:11.998Z,972.84
2018-03-11T02:25:12.356Z,972.82
2018-03-11T02:26:12.662Z,972.78
2018-03-11T02:27:12.928Z,972.77
2018-03-11T02:28:13.143Z,972.76
2018-03-11T02:29:13.411Z,972.77
2018-03-11T02:30:13.661Z,972.76
2018-03-11T02:31:13.903Z,972.79
2018-03-11T02:32:14.141Z,972.75
2018-03-11T02:33:14.460Z,972.77
2018-03-11T02:34:14.694Z,972.74
2018-03-11T02:35:14.900Z,972.76
2018-03-11T02:36:15.163Z,972.76
2018-03-11T02:37:15.469Z,972.74
2018-03-11T02:38:15.663Z,972.71
2018-03-11T02:39:15.892Z,972.71
2018-03-11T02:40:16.138Z,972.69
2018-03-11T02:41:16.379Z,972.68
2018-03-11T02:42:16.621Z,972.66
2018-03-11T02:43:16.887Z,972.64
2018-03-11T02:44:17.142Z,972.63
2018-03-11T02:45:17.353Z,972.65
2018-03-11T02:46:17.619Z,972.62
2018-03-11T02:47:17.840Z,972.64
2018-03-11T02:48:18.103Z,972.61
2018-03-11T02:49:18.340Z,972.62
2018-03-11T02:50:18.611Z,972.57
2018-03-11T02:51:18.844Z,972.59
2018-03-11T02:52:19.087Z,972.52
2018-03-11T02:53:19.333Z,972.49
2018-03-11T02:54:19.571Z,972.47
2018-03-11T02:55:19.829Z,972.43
2018-03-11T02:56:20.055Z,972.47
2018-03-11T02:57:20.357Z,972.53
2018-03-11T02:58:20.615Z,972.48
2018-03-11T02:59:20.852Z,972.48
2018-03-11T03:00:21.089Z,972.45
2018-03-11T03:01:21.339Z,972.42
2018-03-11T03:02:21.580Z,972.37
2018-03-11T03:03:21.885Z,972.37
2018-03-11T03:04:22.091Z,972.32
2018-03-11T03:05:22.339Z,972.27
2018-03-11T03:06:22.605Z,972.28
2018-03-11T03:07:22.858Z,972.27
2018-03-11T03:08:23.188Z,972.31
2018-03-11T03:09:23.356Z,972.32
2018-03-11T03:10:23.587Z,972.34
2018-03-11T03:11:23.825Z,972.24
2018-03-11T03:12:24.095Z,972.27
2018-03-11T03:13:24.347Z,972.23
2018-03-11T03:14:24.607Z,972.25
2018-03-11T03:15:24.846Z,972.21
2018-03-11T03:16:25.100Z,972.24
2018-03-11T03:17:25.361Z,972.23
2018-03-11T03:18:25.595Z,972.22
2018-03-11T03:19:25.812Z,972.21
2018-03-11T03:20:26.138Z,972.21
2018-03-11T03:21:26.347Z,972.22
2018-03-11T03:22:26.656Z,972.18
2018-03-11T03:23:26.881Z,972.19
2018-03-11T03:24:27.065Z,972.18
2018-03-11T03:25:27.305Z,972.12
2018-03-11T03:26:27.562Z,972.09
2018-03-11T03:27:27.812Z,972.07
2018-03-11T03:28:28.050Z,972.09
2018-03-11T03:29:28.286Z,972.04
2018-03-11T03:30:28.677Z,972.02
2018-03-11T03:31:28.978Z,972.00
2018-03-11T03:32:29.266Z,971.96
2018-03-11T03:33:29.486Z,971.94
2018-03-11T03:34:29.751Z,971.93
2018-03-11T03:35:30.024Z,971.90
2018-03-11T03:36:30.309Z,971.89
2018-03-11T03:37:30.556Z,971.89
2018-03-11T03:38:30.864Z,971.89
2018-03-11T03:39:31.088Z,971.85
2018-03-11T03:40:31.294Z,971.81
2018-03-11T03:41:31.566Z,971.85
2018-03-11T03:42:31.819Z,971.89
2018-03-11T03:43:32.205Z,971.90
2018-03-11T03:44:32.387Z,971.89
2018-03-11T03:45:32.710Z,971.91
2018-03-11T03:46:32.852Z,971.91
2018-03-11T03:47:33.072Z,971.87
2018-03-11T03:48:33.303Z,971.87
2018-03-11T03:49:33.674Z,971.85
2018-03-11T03:50:33.837Z,971.80
2018-03-11T03:51:34.080Z,971.87
2018-03-11T03:52:34.328Z,971.83
2018-03-11T03:53:34.614Z,971.87
2018-03-11T03:54:34.834Z,971.81
2018-03-11T03:55:35.083Z,971.76
2018-03-11T03:56:35.335Z,971.72
2018-03-11T03:57:35.584Z,971.71
2018-03-11T03:58:35.828Z,971.74
2018-03-11T03:59:36.100Z,971.82
2018-03-11T04:00:36.352Z,971.86
2018-03-11T04:01:36.621Z,971.92
2018-03-11T04:02:36.875Z,971.89
2018-03-11T04:03:37.049Z,971.88
2018-03-11T04:04:37.305Z,971.88
2018-03-11T04:05:37.593Z,971.81
2018-03-11T04:06:37.790Z,971.79
2018-03-11T04:07:38.038Z,971.75
2018-03-11T04:08:38.283Z,971.71
2018-03-11T04:09:38.647Z,971.65
2018-03-11T04:10:38.804Z,971.65
2018-03-11T04:11:39.016Z,971.59
2018-03-11T04:12:39.248Z,971.60
2018-03-11T04:13:39.516Z,971.56
2018-03-11T04:14:39.774Z,971.54
2018-03-11T04:15:40.004Z,971.58
2018-03-11T04:16:40.277Z,971.58
2018-03-11T04:17:40.526Z,971.60
2018-03-11T04:18:40.817Z,971.60
2018-03-11T04:19:41.078Z,971.61
2018-03-11T04:20:41.406Z,971.61
2018-03-11T04:21:41.562Z,971.61
2018-03-11T04:22:41.885Z,971.61
2018-03-11T04:23:42.107Z,971.62
2018-03-11T04:24:42.404Z,971.66
2018-03-11T04:25:42.605Z,971.68
2018-03-11T04:26:42.930Z,971.68
2018-03-11T04:27:43.072Z,971.65
2018-03-11T04:28:43.299Z,971.65
2018-03-11T04:29:43.584Z,971.66
2018-03-11T04:30:43.863Z,971.62
2018-03-11T04:31:44.114Z,971.62
2018-03-11T04:32:44.343Z,971.62
2018-03-11T04:33:44.542Z,971.64
2018-03-11T04:34:44.877Z,971.64
2018-03-11T04:35:45.053Z,971.67
2018-03-11T04:36:45.332Z,971.61
2018-03-11T04:37:45.543Z,971.61
2018-03-11T04:38:45.880Z,971.58
2018-03-11T04:39:46.113Z,971.58
2018-03-11T04:40:46.336Z,971.58
2018-03-11T04:41:46.664Z,971.51
2018-03-11T04:42:46.815Z,971.55
2018-03-11T04:43:47.083Z,971.52
2018-03-11T04:44:47.305Z,971.52
2018-03-11T04:45:47.551Z,971.53
2018-03-11T04:46:47.876Z,971.57
2018-03-11T04:47:48.037Z,971.56
2018-03-11T04:48:48.419Z,971.55
2018-03-11T04:49:48.526Z,971.57
2018-03-11T04:50:48.836Z,971.63
2018-03-11T04:51:49.067Z,971.69
2018-03-11T04:52:49.264Z,971.67
2018-03-11T04:53:49.552Z,971.67
2018-03-11T04:54:49.795Z,971.63
2018-03-11T04:55:50.030Z,971.66
2018-03-11T04:56:50.330Z,971.65
2018-03-11T04:57:50.574Z,971.70
2018-03-11T04:58:50.786Z,971.66
2018-03-11T04:59:51.000Z,971.71
2018-03-11T05:00:51.280Z,971.67
2018-03-11T05:01:51.529Z,971.67
2018-03-11T05:02:51.801Z,971.65
2018-03-11T05:03:52.050Z,971.67
2018-03-11T05:04:52.245Z,971.69
2018-03-11T05:05:52.542Z,971.64
2018-03-11T05:06:52.822Z,971.64
2018-03-11T05:07:53.098Z,971.62
2018-03-11T05:08:53.335Z,971.60
2018-03-11T05:09:53.594Z,971.64
2018-03-11T05:10:53.805Z,971.59
2018-03-11T05:11:54.079Z,971.63
2018-03-11T05:12:54.330Z,971.64
2018-03-11T05:13:54.564Z,971.62
2018-03-11T05:14:54.757Z,971.64
2018-03-11T05:15:54.998Z,971.61
2018-03-11T05:16:55.272Z,971.59
2018-03-11T05:17:55.568Z,971.52
2018-03-11T05:18:55.734Z,971.49
2018-03-11T05:19:56.023Z,971.48
2018-03-11T05:20:56.241Z,971.45
2018-03-11T05:21:56.531Z,971.39
2018-03-11T05:22:56.755Z,971.41
2018-03-11T05:23:57.013Z,971.40
2018-03-11T05:24:57.239Z,971.41
2018-03-11T05:25:57.516Z,971.42
2018-03-11T05:26:57.735Z,971.45
2018-03-11T05:27:57.965Z,971.43
2018-03-11T05:28:58.215Z,971.40
2018-03-11T05:29:58.455Z,971.41
2018-03-11T05:30:58.712Z,971.43
2018-03-11T05:31:58.961Z,971.47
2018-03-11T05:32:59.212Z,971.45
2018-03-11T05:33:59.520Z,971.44
2018-03-11T05:34:59.713Z,971.51
2018-03-11T05:35:59.953Z,971.50
2018-03-11T05:37:00.337Z,971.51
2018-03-11T05:38:00.517Z,971.52
2018-03-11T05:39:00.752Z,971.54
2018-03-11T05:40:00.944Z,971.52
2018-03-11T05:41:01.270Z,971.52
2018-03-11T05:42:01.674Z,971.55
2018-03-11T05:43:01.796Z,971.53
2018-03-11T05:44:02.031Z,971.50
2018-03-11T05:45:02.212Z,971.52
2018-03-11T05:46:02.434Z,971.46
2018-03-11T05:47:02.668Z,971.50
2018-03-11T05:48:02.901Z,971.41
2018-03-11T05:49:03.170Z,971.38
2018-03-11T05:50:03.459Z,971.31
2018-03-11T05:51:03.667Z,971.30
2018-03-11T05:52:03.907Z,971.24
2018-03-11T05:53:04.206Z,971.21
2018-03-11T05:54:04.461Z,971.17
2018-03-11T05:55:04.643Z,971.16
2018-03-11T05:56:04.881Z,971.17
2018-03-11T05:57:05.134Z,971.18
2018-03-11T05:58:05.430Z,971.22
2018-03-11T05:59:05.638Z,971.19
2018-03-11T06:00:06.224Z,971.18
2018-03-11T06:01:06.417Z,971.17
2018-03-11T06:02:06.632Z,971.17
2018-03-11T06:03:06.876Z,971.16
2018-03-11T06:04:07.072Z,971.12
2018-03-11T06:05:07.342Z,971.08
2018-03-11T06:06:07.602Z,971.04
2018-03-11T06:07:07.827Z,971.13
2018-03-11T06:08:08.101Z,971.19
2018-03-11T06:09:08.367Z,971.23
2018-03-11T06:10:08.579Z,971.26
2018-03-11T06:11:08.830Z,971.26
2018-03-11T06:12:09.057Z,971.25
2018-03-11T06:13:09.306Z,971.24
2018-03-11T06:14:09.554Z,971.21
2018-03-11T06:15:09.823Z,971.21
2018-03-11T06:16:10.039Z,971.17
2018-03-11T06:17:10.294Z,971.17
2018-03-11T06:18:10.525Z,971.09
2018-03-11T06:19:10.771Z,971.10
2018-03-11T06:20:11.062Z,971.07
2018-03-11T06:21:11.342Z,971.04
2018-03-11T06:22:11.576Z,971.03
2018-03-11T06:23:11.779Z,971.00
2018-03-11T06:24:11.997Z,971.02
2018-03-11T06:25:12.225Z,971.07
2018-03-11T06:26:12.499Z,971.01
2018-03-11T06:27:12.794Z,971.07
2018-03-11T06:28:13.005Z,971.07
2018-03-11T06:29:13.303Z,971.06
2018-03-11T06:30:13.478Z,971.03
2018-03-11T06:31:13.698Z,971.00
2018-03-11T06:32:13.974Z,970.95
2018-03-11T06:33:14.216Z,970.88
2018-03-11T06:34:14.499Z,970.86
2018-03-11T06:35:14.731Z,970.83
2018-03-11T06:36:14.983Z,970.79
2018-03-11T06:37:15.242Z,970.83
2018-03-11T06:38:15.474Z,970.85
2018-03-11T06:39:15.732Z,970.82
2018-03-11T06:40:15.943Z,970.79
2018-03-11T06:41:16.204Z,970.77
2018-03-11T06:42:16.495Z,970.77
2018-03-11T06:43:16.770Z,970.78
2018-03-11T06:44:17.044Z,970.81
2018-03-11T06:45:17.197Z,970.77
2018-03-11T06:46:17.582Z,970.76
2018-03-11T06:47:17.808Z,970.73
2018-03-11T06:48:18.029Z,970.68
2018-03-11T06:49:18.258Z,970.67
2018-03-11T06:50:18.676Z,970.63
2018-03-11T06:51:18.835Z,970.60
2018-03-11T06:52:19.187Z,970.58
2018-03-11T06:53:19.469Z,970.59
2018-03-11T06:54:19.634Z,970.58
2018-03-11T06:55:19.821Z,970.58
2018-03-11T06:56:20.036Z,970.56
2018-03-11T06:57:20.364Z,970.59
2018-03-11T06:58:20.542Z,970.58
2018-03-11T06:59:20.783Z,970.50
2018-03-11T07:00:21.033Z,970.44
2018-03-11T07:01:21.265Z,970.41
2018-03-11T07:02:21.506Z,970.40
2018-03-11T07:03:21.804Z,970.38
2018-03-11T07:04:22.017Z,970.35
2018-03-11T07:05:22.288Z,970.37
2018-03-11T07:06:22.475Z,970.38
2018-03-11T07:07:22.735Z,970.34
2018-03-11T07:08:23.003Z,970.34
2018-03-11T07:09:23.240Z,970.26
2018-03-11T07:10:23.488Z,970.28
2018-03-11T07:11:23.771Z,970.23
2018-03-11T07:12:24.071Z,970.31
2018-03-11T07:13:24.286Z,970.31
2018-03-11T07:14:24.509Z,970.36
2018-03-11T07:15:24.708Z,970.39
2018-03-11T07:16:24.977Z,970.37
2018-03-11T07:17:25.206Z,970.38
2018-03-11T07:18:25.459Z,970.36
2018-03-11T07:19:25.708Z,970.34
2018-03-11T07:20:25.936Z,970.38
2018-03-11T07:21:26.244Z,970.38
2018-03-11T07:22:26.575Z,970.36
2018-03-11T07:23:26.819Z,970.30
2018-03-11T07:24:26.999Z,970.30
2018-03-11T07:25:27.251Z,970.29
2018-03-11T07:26:27.483Z,970.27
2018-03-11T07:27:27.730Z,970.25
2018-03-11T07:28:27.948Z,970.25
2018-03-11T07:29:28.222Z,970.24
2018-03-11T07:30:28.503Z,970.26
2018-03-11T07:31:28.719Z,970.22
2018-03-11T07:32:28.918Z,970.18
2018-03-11T07:33:29.220Z,970.20
2018-03-11T07:34:29.523Z,970.20
2018-03-11T07:35:29.660Z,970.23
2018-03-11T07:36:29.929Z,970.16
2018-03-11T07:37:30.170Z,970.17
2018-03-11T07:38:30.409Z,970.16
2018-03-11T07:39:30.660Z,970.15
2018-03-11T07:40:30.905Z,970.14
2018-03-11T07:41:31.107Z,970.12
2018-03-11T07:42:31.379Z,970.08
2018-03-11T07:43:31.627Z,970.06
2018-03-11T07:44:31.902Z,969.98
2018-03-11T07:45:32.130Z,969.95
2018-03-11T07:46:32.382Z,969.94
2018-03-11T07:47:32.652Z,969.93
2018-03-11T07:48:32.923Z,969.89
2018-03-11T07:49:33.121Z,969.94
2018-03-11T07:50:33.394Z,969.95
2018-03-11T07:51:33.679Z,969.98
2018-03-11T07:52:34.094Z,970.03
2018-03-11T07:53:34.190Z,970.05
2018-03-11T07:54:34.431Z,970.06
2018-03-11T07:55:34.691Z,970.08
2018-03-11T07:56:34.922Z,970.10
2018-03-11T07:57:35.148Z,970.13
2018-03-11T07:58:35.435Z,970.12
2018-03-11T07:59:35.676Z,970.15
2018-03-11T08:00:35.921Z,970.12
2018-03-11T08:01:36.163Z,970.12
2018-03-11T08:02:36.496Z,970.15
2018-03-11T08:03:36.675Z,970.14
2018-03-11T08:04:36.931Z,970.13
2018-03-11T08:05:37.180Z,970.21
2018-03-11T08:06:37.422Z,970.21
2018-03-11T08:07:37.704Z,970.23
2018-03-11T08:08:37.931Z,970.25
2018-03-11T08:09:38.228Z,970.23
2018-03-11T08:10:38.509Z,970.22
2018-03-11T08:11:38.718Z,970.19
2018-03-11T08:12:39.001Z,970.26
2018-03-11T08:13:39.221Z,970.23
2018-03-11T08:14:39.497Z,970.29
2018-03-11T08:15:39.738Z,970.32
2018-03-11T08:16:40.012Z,970.35
2018-03-11T08:17:40.242Z,970.42
2018-03-11T08:18:40.542Z,970.46
2018-03-11T08:19:40.741Z,970.45
2018-03-11T08:20:41.004Z,970.46
2018-03-11T08:21:41.258Z,970.47
2018-03-11T08:22:41.518Z,970.51
2018-03-11T08:23:41.761Z,970.50
2018-03-11T08:24:41.991Z,970.49
2018-03-11T08:25:42.269Z,970.52
2018-03-11T08:26:42.480Z,970.55
2018-03-11T08:27:42.745Z,970.59
2018-03-11T08:28:43.060Z,970.60
2018-03-11T08:29:43.347Z,970.62
2018-03-11T08:30:43.602Z,970.59
2018-03-11T08:31:43.824Z,970.59
2018-03-11T08:32:44.065Z,970.56
2018-03-11T08:33:44.338Z,970.50
2018-03-11T08:34:44.608Z,970.48
2018-03-11T08:35:44.863Z,970.49
2018-03-11T08:36:45.102Z,970.46
2018-03-11T08:37:45.358Z,970.47
2018-03-11T08:38:45.634Z,970.47
2018-03-11T08:39:45.957Z,970.49
2018-03-11T08:40:46.098Z,970.44
2018-03-11T08:41:46.455Z,970.44
2018-03-11T08:42:46.712Z,970.48
2018-03-11T08:43:46.945Z,970.54
2018-03-11T08:44:47.202Z,970.56
2018-03-11T08:45:47.453Z,970.59
2018-03-11T08:46:47.712Z,970.54
2018-03-11T08:47:47.941Z,970.57
2018-03-11T08:48:48.234Z,970.60
2018-03-11T08:49:48.473Z,970.63
2018-03-11T08:50:48.713Z,970.61
2018-03-11T08:51:48.986Z,970.65
2018-03-11T08:52:49.252Z,970.63
2018-03-11T08:53:49.478Z,970.65
2018-03-11T08:54:49.721Z,970.62
2018-03-11T08:55:49.950Z,970.63
2018-03-11T08:56:50.239Z,970.66
2018-03-11T08:57:50.457Z,970.67
2018-03-11T08:58:50.757Z,970.73
2018-03-11T08:59:50.988Z,970.72
2018-03-11T09:00:51.243Z,970.68
2018-03-11T09:01:51.509Z,970.66
2018-03-11T09:02:51.762Z,970.61
2018-03-11T09:03:52.012Z,970.62
2018-03-11T09:04:52.245Z,970.58
2018-03-11T09:05:52.535Z,970.57
2018-03-11T09:06:52.780Z,970.56
2018-03-11T09:07:53.003Z,970.57
2018-03-11T09:08:53.264Z,970.60
2018-03-11T09:09:53.496Z,970.61
2018-03-11T09:10:53.746Z,970.56
2018-03-11T09:11:54.017Z,970.54
2018-03-11T09:12:54.238Z,970.49
2018-03-11T09:13:54.509Z,970.47
2018-03-11T09:14:54.743Z,970.48
2018-03-11T09:15:55.083Z,970.48
2018-03-11T09:16:55.244Z,970.42
2018-03-11T09:17:55.534Z,970.39
2018-03-11T09:18:55.817Z,970.36
2018-03-11T09:19:56.045Z,970.26
2018-03-11T09:20:56.254Z,970.29
2018-03-11T09:21:56.536Z,970.22
2018-03-11T09:22:56.801Z,970.18
2018-03-11T09:23:57.061Z,970.20
2018-03-11T09:24:57.345Z,970.18
2018-03-11T09:25:57.602Z,970.14
2018-03-11T09:26:57.873Z,970.12
2018-03-11T09:27:58.080Z,970.11
2018-03-11T09:28:58.324Z,970.04
2018-03-11T09:29:58.563Z,970.04
2018-03-11T09:30:58.816Z,970.03
2018-03-11T09:31:59.148Z,970.03
2018-03-11T09:32:59.450Z,970.04
2018-03-11T09:33:59.697Z,970.02
2018-03-11T09:34:59.965Z,969.99
2018-03-11T09:36:00.214Z,970.00
2018-03-11T09:37:00.565Z,969.98
2018-03-11T09:38:00.724Z,969.94
2018-03-11T09:39:01.087Z,969.89
2018-03-11T09:40:01.319Z,969.88
2018-03-11T09:41:01.520Z,969.79
2018-03-11T09:42:01.763Z,969.78
2018-03-11T09:43:02.073Z,969.80
2018-03-11T09:44:02.262Z,969.76
2018-03-11T09:45:02.535Z,969.80
2018-03-11T09:46:02.769Z,969.77
2018-03-11T09:47:03.064Z,969.75
2018-03-11T09:48:03.350Z,969.75
2018-03-11T09:49:03.519Z,969.77
2018-03-11T09:50:03.791Z,969.79
2018-03-11T09:51:04.049Z,969.78
2018-03-11T09:52:04.341Z,969.80
2018-03-11T09:53:04.582Z,969.72
2018-03-11T09:54:04.865Z,969.65
2018-03-11T09:55:05.100Z,969.68
2018-03-11T09:56:05.348Z,969.67
2018-03-11T09:57:05.607Z,969.65
2018-03-11T09:58:05.839Z,969.64
2018-03-11T09:59:06.116Z,969.66
2018-03-11T10:00:06.565Z,969.64
2018-03-11T10:01:06.721Z,969.67
2018-03-11T10:02:06.999Z,969.60
2018-03-11T10:03:07.253Z,969.65
2018-03-11T10:04:07.503Z,969.64
2018-03-11T10:05:07.777Z,969.66
2018-03-11T10:06:08.006Z,969.65
2018-03-11T10:07:08.298Z,969.64
2018-03-11T10:08:08.536Z,969.58
2018-03-11T10:09:08.765Z,969.54
2018-03-11T10:10:09.024Z,969.54
2018-03-11T10:11:09.276Z,969.54
2018-03-11T10:12:09.516Z,969.51
2018-03-11T10:13:09.757Z,969.54
2018-03-11T10:14:10.010Z,969.49
2018-03-11T10:15:10.290Z,969.51
2018-03-11T10:16:10.612Z,969.50
2018-03-11T10:17:10.759Z,969.53
2018-03-11T10:18:11.021Z,969.53
2018-03-11T10:19:11.286Z,969.54
2018-03-11T10:20:11.554Z,969.50
2018-03-11T10:21:11.799Z,969.52
2018-03-11T10:22:12.032Z,969.54
2018-03-11T10:23:12.292Z,969.56
2018-03-11T10:24:12.558Z,969.56
2018-03-11T10:25:12.782Z,969.56
2018-03-11T10:26:13.088Z,969.55
2018-03-11T10:27:13.314Z,969.53
2018-03-11T10:28:13.573Z,969.52
2018-03-11T10:29:13.804Z,969.57
2018-03-11T10:30:14.073Z,969.54
2018-03-11T10:31:14.348Z,969.55
2018-03-11T10:32:14.555Z,969.54
2018-03-11T10:33:14.798Z,969.58
2018-03-11T10:34:15.166Z,969.59
2018-03-11T10:35:15.519Z,969.59
2018-03-11T10:36:15.711Z,969.60
2018-03-11T10:37:15.982Z,969.60
2018-03-11T10:38:16.191Z,969.55
2018-03-11T10:39:16.465Z,969.57
2018-03-11T10:40:16.739Z,969.53
2018-03-11T10:41:16.988Z,969.50
2018-03-11T10:42:17.231Z,969.50
2018-03-11T10:43:17.472Z,969.53
2018-03-11T10:44:17.732Z,969.53
2018-03-11T10:45:18.032Z,969.54
2018-03-11T10:46:18.288Z,969.53
2018-03-11T10:47:18.520Z,969.52
2018-03-11T10:48:18.784Z,969.49
2018-03-11T10:49:18.987Z,969.52
2018-03-11T10:50:19.260Z,969.48
2018-03-11T10:51:19.578Z,969.48
2018-03-11T10:52:19.795Z,969.46
2018-03-11T10:53:20.040Z,969.42
2018-03-11T10:54:20.260Z,969.42
2018-03-11T10:55:20.546Z,969.39
2018-03-11T10:56:20.902Z,969.38
2018-03-11T10:57:21.022Z,969.39
2018-03-11T10:58:21.271Z,969.36
2018-03-11T10:59:21.544Z,969.36
2018-03-11T11:00:21.810Z,969.43
2018-03-11T11:01:22.033Z,969.46
2018-03-11T11:02:22.341Z,969.48
2018-03-11T11:03:22.564Z,969.50
2018-03-11T11:04:22.833Z,969.56
2018-03-11T11:05:23.080Z,969.59
2018-03-11T11:06:23.334Z,969.55
2018-03-11T11:07:23.575Z,969.53
2018-03-11T11:08:23.855Z,969.46
2018-03-11T11:09:24.081Z,969.41
2018-03-11T11:10:24.344Z,969.45
2018-03-11T11:11:24.610Z,969.43
2018-03-11T11:12:24.838Z,969.41
2018-03-11T11:13:25.098Z,969.38
2018-03-11T11:14:25.365Z,969.42
2018-03-11T11:15:25.643Z,969.45
2018-03-11T11:16:25.889Z,969.47
2018-03-11T11:17:26.138Z,969.32
2018-03-11T11:18:26.391Z,969.33
2018-03-11T11:19:26.631Z,969.27
2018-03-11T11:20:26.926Z,969.26
2018-03-11T11:21:27.141Z,969.19
2018-03-11T11:22:27.409Z,969.17
2018-03-11T11:23:27.645Z,969.16
2018-03-11T11:24:27.902Z,969.17
2018-03-11T11:25:28.207Z,969.15
2018-03-11T11:26:28.510Z,969.18
2018-03-11T11:27:28.689Z,969.17
2018-03-11T11:28:28.950Z,969.12
2018-03-11T11:29:29.201Z,969.09
2018-03-11T11:30:29.480Z,969.08
2018-03-11T11:31:29.688Z,969.01
2018-03-11T11:32:29.962Z,969.05
2018-03-11T11:33:30.212Z,968.99
2018-03-11T11:34:30.456Z,969.02
2018-03-11T11:35:30.718Z,969.02
2018-03-11T11:36:30.973Z,968.99
2018-03-11T11:37:31.261Z,969.02
2018-03-11T11:38:31.476Z,969.03
2018-03-11T11:39:31.757Z,969.04
2018-03-11T11:40:32.001Z,968.99
2018-03-11T11:41:32.239Z,969.03
2018-03-11T11:42:32.518Z,969.03
2018-03-11T11:43:32.759Z,969.04
2018-03-11T11:44:33.048Z,969.06
2018-03-11T11:45:33.266Z,969.03
2018-03-11T11:46:33.558Z,969.00
2018-03-11T11:47:33.802Z,969.02
2018-03-11T11:48:34.082Z,969.01
2018-03-11T11:49:34.326Z,969.08
2018-03-11T11:50:34.551Z,969.07
2018-03-11T11:51:34.883Z,969.01
2018-03-11T11:52:35.069Z,969.02
2018-03-11T11:53:35.342Z,969.03
2018-03-11T11:54:35.588Z,969.01
2018-03-11T11:55:35.833Z,969.09
2018-03-11T11:56:36.088Z,969.08
2018-03-11T11:57:36.328Z,969.05
2018-03-11T11:58:36.772Z,969.04
2018-03-11T11:59:36.919Z,969.03
2018-03-11T12:00:37.287Z,969.09
2018-03-11T12:01:37.407Z,969.02
2018-03-11T12:02:37.675Z,969.02
2018-03-11T12:03:37.915Z,968.96
2018-03-11T12:04:38.217Z,968.95
2018-03-11T12:05:38.439Z,968.89
2018-03-11T12:06:38.705Z,968.88
2018-03-11T12:07:38.949Z,968.82
2018-03-11T12:08:39.187Z,968.80
2018-03-11T12:09:39.470Z,968.77
2018-03-11T12:10:39.765Z,968.75
2018-03-11T12:11:40.079Z,968.77
2018-03-11T12:12:40.383Z,968.81
2018-03-11T12:13:40.579Z,968.84
2018-03-11T12:14:40.842Z,968.81
2018-03-11T12:15:41.116Z,968.83
2018-03-11T12:16:41.341Z,968.83
2018-03-11T12:17:41.600Z,968.84
2018-03-11T12:18:41.854Z,968.80
2018-03-11T12:19:42.191Z,968.83
2018-03-11T12:20:42.437Z,968.82
2018-03-11T12:21:42.765Z,968.84
2018-03-11T12:22:43.079Z,968.88
2018-03-11T12:23:43.286Z,968.89
2018-03-11T12:24:43.548Z,968.90
2018-03-11T12:25:43.897Z,968.84
2018-03-11T12:26:44.189Z,968.85
2018-03-11T12:27:44.392Z,968.96
2018-03-11T12:28:44.628Z,968.94
2018-03-11T12:29:44.898Z,968.95
2018-03-11T12:30:45.174Z,968.84
2018-03-11T12:31:45.389Z,968.83